KAXS/AXS METAR and TAF weather

Enter ICAO airport designator
Station Type Date Time Source
KAXS METAR 2019/12/14 06:15 UTC NOAA

KAXS 140615Z AUTO 32005KT 10SM CLR 05/02 A2993 RMK AO2 T00450015


Station Type Date Time Source
KAXS Decoded METAR 2019/12/14 06:15 UTC NOAA

Altus, Altus/Quartz Mountain Regional Airport, OK, United States (KAXS) 34-41-55N 099-20-17W
Dec 14, 2019 - 01:15 AM EST / 2019.12.14 0615 UTC
Wind: from the NW (320 degrees) at 6 MPH (5 KT):0
Visibility: 10 mile(s):0
Sky conditions: clear
Temperature: 40.1 F (4.5 C)
Dew Point: 34.7 F (1.5 C)
Relative Humidity: 80%
Pressure (altimeter): 29.93 in. Hg (1013 hPa)
ob: KAXS 140615Z AUTO 32005KT 10SM CLR 05/02 A2993 RMK AO2 T00450015
cycle: 6

Station Type Date Time Source
KAXS TAF UTC NOAA

Error!

Example: see airport list